BCN weather

Barcelona International Airport
Barcelona, Catalonia, Spain

Public forecast

Using degrees Celsius for public forecast. Weather courtesy of forecast.io.

METAR (pilot weather report)

Retrieved 2017/03/29 09:00 UTC (9 minutes ago):

LEBL 290900Z 32008KT 300V360 CAVOK 16/09 Q1027 NOSIG

TAF (pilot weather forecast)

Retrieved 2017/03/29 06:27 UTC (3 hours ago):

TAF LEBL 290500Z 2906/3006 VRB04KT 9999 FEW030 TX19/2913Z TN10/3006Z TEMPO 2906/2910 34009KT BECMG 2910/2912 22010KT BECMG 2920/2922 26003KT PROB30 TEMPO 3004/3006 3000 BR BKN009